Time;durP1;ratioP1;P1;durP2;ratioP2;P2;SDS_P1;SDS_P2;PMS_P1;PMS_P2;Temp;Humidity;BMP_temperature;BMP_pressure;BME280_temperature;BME280_humidity;BME280_pressure;Samples;Min_cycle;Max_cycle;Signal;HPM_P1;HPM_P2
2022/02/16 00:00:09;;;;;;;16.23;5.50;;;;;;;-2.17;50.03;99570.25;5126308;27;20043;-77
2022/02/16 00:02:42;;;;;;;14.73;4.68;;;;;;;-2.17;50.01;99600.56;5114065;28;20055;-77
2022/02/16 00:05:11;;;;;;;19.40;5.60;;;;;;;-2.11;49.66;99572.16;5122284;27;20047;-77
2022/02/16 00:07:40;;;;;;;16.40;5.30;;;;;;;-2.22;50.21;99575.41;5092272;28;20100;-77
2022/02/16 00:10:07;;;;;;;14.00;4.70;;;;;;;-2.24;50.05;99586.28;5099710;28;20073;-79
2022/02/16 00:12:33;;;;;;;18.58;5.38;;;;;;;-2.15;49.89;99578.94;5110687;28;20051;-79
2022/02/16 00:14:59;;;;;;;15.43;5.07;;;;;;;-2.11;49.81;99585.53;5129728;27;20047;-78
2022/02/16 00:17:26;;;;;;;17.47;5.13;;;;;;;-2.09;49.58;99572.81;5094970;28;20043;-78
2022/02/16 00:19:52;;;;;;;19.90;5.10;;;;;;;-2.25;50.17;99586.50;5125933;27;20053;-78
2022/02/16 00:22:18;;;;;;;18.60;5.80;;;;;;;-2.28;50.00;99579.69;5128795;28;20304;-78
2022/02/16 00:24:45;;;;;;;16.53;5.10;;;;;;;-2.32;50.24;99581.91;5085519;28;20093;-78
2022/02/16 00:27:11;;;;;;;18.00;5.37;;;;;;;-2.34;50.15;99570.56;5127728;28;20120;-78
2022/02/16 00:29:37;;;;;;;16.87;5.63;;;;;;;-2.37;50.41;99580.84;5102928;28;20089;-78
2022/02/16 00:32:04;;;;;;;16.27;4.90;;;;;;;-2.44;50.44;99584.31;5109946;27;20150;-78
2022/02/16 00:34:30;;;;;;;14.87;4.90;;;;;;;-2.33;50.14;99579.44;5109053;28;20077;-78
2022/02/16 00:36:58;;;;;;;16.07;4.80;;;;;;;-2.39;50.18;99583.72;5098949;28;20554;-78
2022/02/16 00:39:24;;;;;;;15.83;4.77;;;;;;;-2.44;50.30;99584.31;5112644;28;20139;-78
2022/02/16 00:41:51;;;;;;;15.63;4.77;;;;;;;-2.38;50.47;99571.16;5127936;27;20035;-78
2022/02/16 00:44:17;;;;;;;19.20;5.30;;;;;;;-2.37;50.29;99562.09;5106585;28;20143;-78
2022/02/16 00:46:43;;;;;;;19.60;5.17;;;;;;;-2.41;50.49;99548.28;5106201;28;20046;-77
2022/02/16 00:49:09;;;;;;;20.30;4.70;;;;;;;-2.39;50.34;99550.75;5069709;28;20043;-78
2022/02/16 00:51:38;;;;;;;15.67;4.97;;;;;;;-2.55;50.58;99551.91;5126809;27;20050;-78
2022/02/16 00:54:04;;;;;;;17.83;5.17;;;;;;;-2.50;50.61;99550.25;5091364;28;20053;-78
2022/02/16 00:56:32;;;;;;;14.23;4.57;;;;;;;-2.44;50.61;99533.44;5104631;28;20526;-77
2022/02/16 00:58:58;;;;;;;19.47;5.80;;;;;;;-2.40;50.25;99536.56;5114491;28;20051;-77
2022/02/16 01:01:25;;;;;;;16.53;5.00;;;;;;;-2.42;50.43;99525.19;5118405;27;20058;-77
2022/02/16 01:03:54;;;;;;;17.47;5.67;;;;;;;-2.26;49.96;99537.44;5122081;27;20051;-80
2022/02/16 01:06:22;;;;;;;19.05;5.22;;;;;;;-2.38;50.18;99520.28;5090418;28;20047;-80
2022/02/16 01:08:49;;;;;;;15.40;5.70;;;;;;;-2.47;50.47;99516.91;5120988;27;20047;-80
2022/02/16 01:11:16;;;;;;;21.08;6.30;;;;;;;-2.44;50.48;99512.00;5106292;28;20051;-79
2022/02/16 01:13:42;;;;;;;18.70;5.50;;;;;;;-2.34;50.32;99510.81;5110602;28;20054;-80
2022/02/16 01:16:08;;;;;;;15.23;6.00;;;;;;;-2.46;50.54;99511.38;5122911;28;20142;-80
2022/02/16 01:18:38;;;;;;;16.73;5.90;;;;;;;-2.45;50.51;99504.16;5104094;28;20042;-79
2022/02/16 01:21:05;;;;;;;18.63;5.90;;;;;;;-2.38;50.44;99502.38;5117293;27;20047;-78
2022/02/16 01:23:32;;;;;;;15.67;5.50;;;;;;;-2.47;50.47;99501.69;5111117;28;20546;-79
2022/02/16 01:26:00;;;;;;;20.00;5.70;;;;;;;-2.44;50.86;99503.13;5123598;28;20414;-79
2022/02/16 01:28:39;;;;;;;17.23;5.90;;;;;;;-2.56;50.78;99494.81;5089135;28;20043;-79
2022/02/16 01:31:06;;;;;;;17.15;5.97;;;;;;;-2.49;50.65;99493.03;5109281;28;20047;-79
2022/02/16 01:33:35;;;;;;;21.10;5.60;;;;;;;-2.53;50.93;99488.25;5104465;28;20066;-79
2022/02/16 01:36:01;;;;;;;15.20;5.60;;;;;;;-2.71;51.00;99482.38;5123776;27;20052;-78
2022/02/16 01:38:27;;;;;;;20.13;5.67;;;;;;;-2.60;50.72;99489.03;5108875;28;20128;-78
2022/02/16 01:41:04;;;;;;;19.37;5.43;;;;;;;-2.62;50.88;99484.91;5082310;28;20043;-78
2022/02/16 01:43:30;;;;;;;15.73;5.47;;;;;;;-2.63;50.79;99486.75;5105257;28;20374;-78
2022/02/16 01:45:57;;;;;;;17.50;5.40;;;;;;;-2.73;51.25;99484.41;5077903;28;20515;-77
2022/02/16 01:48:24;;;;;;;14.60;5.87;;;;;;;-2.78;51.03;99473.47;5089893;28;20043;-78
2022/02/16 01:50:52;;;;;;;15.87;5.63;;;;;;;-2.81;51.30;99465.84;5107976;28;20053;-79
2022/02/16 01:53:33;;;;;;;14.80;5.07;;;;;;;-2.78;51.20;99478.00;5121341;28;20449;-79
2022/02/16 01:55:59;;;;;;;14.33;5.60;;;;;;;-2.73;50.95;99473.72;5107462;28;20502;-79
2022/02/16 01:58:27;;;;;;;18.30;6.00;;;;;;;-2.73;50.89;99468.38;5093028;28;20047;-78
2022/02/16 02:01:12;;;;;;;21.27;6.13;;;;;;;-2.72;50.94;99464.66;5105618;28;20175;-78
2022/02/16 02:03:40;;;;;;;20.00;6.50;;;;;;;-2.74;50.43;99455.16;5082732;27;20312;-79
2022/02/16 02:06:11;;;;;;;18.10;6.23;;;;;;;-2.88;51.12;99448.91;5068383;28;20048;-79
2022/02/16 02:08:39;;;;;;;19.45;6.05;;;;;;;-2.83;51.21;99465.19;5071479;28;20412;-78
2022/02/16 02:11:07;;;;;;;20.10;6.20;;;;;;;-2.93;51.30;99483.47;5119708;27;20045;-80
2022/02/16 02:13:53;;;;;;;15.13;5.47;;;;;;;-2.76;51.02;99468.75;5076386;28;20055;-80
2022/02/16 02:16:24;;;;;;;23.07;6.63;;;;;;;-2.78;50.97;99472.66;5110335;28;20134;-80
2022/02/16 02:18:51;;;;;;;19.33;6.72;;;;;;;-2.76;50.95;99466.09;5087230;28;20534;-80
2022/02/16 02:21:22;;;;;;;21.20;5.93;;;;;;;-2.83;51.01;99451.00;5109200;27;20503;-77
2022/02/16 02:23:49;;;;;;;23.17;6.40;;;;;;;-2.97;51.11;99455.41;5105996;27;20051;-77
2022/02/16 02:26:16;;;;;;;21.55;6.47;;;;;;;-2.90;51.43;99458.97;5092289;28;20075;-77
2022/02/16 02:28:44;;;;;;;18.50;6.25;;;;;;;-2.95;51.36;99438.16;5125184;28;20043;-77
2022/02/16 02:31:10;;;;;;;19.30;7.05;;;;;;;-2.89;51.61;99449.94;5086377;27;20069;-77
2022/02/16 02:33:39;;;;;;;17.53;6.50;;;;;;;-2.81;51.21;99444.44;5116012;28;20079;-78
2022/02/16 02:36:06;;;;;;;16.10;6.13;;;;;;;-2.90;51.67;99451.75;5086538;28;20051;-77
2022/02/16 02:38:34;;;;;;;21.55;5.90;;;;;;;-3.03;51.83;99452.50;5123118;28;20109;-78
2022/02/16 02:41:03;;;;;;;22.70;6.55;;;;;;;-2.89;51.62;99447.25;5089552;28;20059;-80
2022/02/16 02:43:39;;;;;;;17.07;6.30;;;;;;;-3.04;51.90;99450.84;5073819;28;20047;-78
2022/02/16 02:46:05;;;;;;;19.23;6.80;;;;;;;-2.96;51.74;99449.06;5121432;28;20043;-79
2022/02/16 02:49:01;;;;;;;18.50;6.50;;;;;;;-3.08;52.16;99462.13;5094083;27;20058;-77
2022/02/16 02:51:28;;;;;;;26.83;7.28;;;;;;;-3.13;52.44;99466.22;5083121;28;20047;-78
2022/02/16 02:53:57;;;;;;;22.13;6.77;;;;;;;-3.15;52.28;99475.44;5112216;28;20048;-77
2022/02/16 02:56:25;;;;;;;19.00;6.77;;;;;;;-3.21;52.50;99455.63;5109400;28;20130;-78
2022/02/16 02:58:52;;;;;;;19.20;6.70;;;;;;;-3.21;52.33;99447.63;5110550;28;20047;-78
2022/02/16 03:01:19;;;;;;;23.77;7.22;;;;;;;-3.19;52.60;99458.13;5115541;28;20550;-81
2022/02/16 03:03:50;;;;;;;21.83;7.17;;;;;;;-3.20;52.82;99473.38;5086994;28;20487;-81
2022/02/16 03:06:17;;;;;;;19.30;7.00;;;;;;;-3.12;52.30;99456.34;5119070;28;20105;-78
2022/02/16 03:08:44;;;;;;;25.23;7.67;;;;;;;-3.10;52.39;99458.81;5128956;27;20046;-78
2022/02/16 03:11:16;;;;;;;22.77;6.90;;;;;;;-3.10;52.35;99456.16;5103558;28;20554;-78
2022/02/16 03:13:43;;;;;;;20.17;6.90;;;;;;;-3.20;52.40;99433.25;5128224;28;20046;-82
2022/02/16 03:16:20;;;;;;;17.75;6.72;;;;;;;-3.11;52.53;99436.63;5095018;27;20039;-78
2022/02/16 03:18:46;;;;;;;19.83;7.57;;;;;;;-3.07;52.51;99429.84;5108320;28;20480;-79
2022/02/16 03:21:12;;;;;;;21.80;8.37;;;;;;;-3.06;52.37;99442.19;5110882;28;20069;-78
2022/02/16 03:23:40;;;;;;;20.30;6.97;;;;;;;-3.16;52.98;99429.16;5111863;28;20475;-78
2022/02/16 03:26:06;;;;;;;21.25;6.80;;;;;;;-3.04;52.46;99434.78;5108133;27;20441;-78
2022/02/16 03:28:36;;;;;;;20.00;7.67;;;;;;;-3.18;52.71;99420.50;5128467;28;20039;-78
2022/02/16 03:31:28;;;;;;;25.83;6.80;;;;;;;-3.17;53.07;99429.34;5098023;28;20507;-78
2022/02/16 03:34:03;;;;;;;22.23;7.50;;;;;;;-3.27;53.30;99408.28;5101291;28;20046;-79
2022/02/16 03:36:32;;;;;;;17.83;6.93;;;;;;;-3.20;52.93;99421.72;5097872;28;20045;-80
2022/02/16 03:38:59;;;;;;;20.53;7.30;;;;;;;-3.30;53.26;99424.72;5131797;27;20525;-78
2022/02/16 03:41:29;;;;;;;25.10;7.50;;;;;;;-3.23;53.06;99420.25;5095599;28;20707;-79
2022/02/16 03:43:55;;;;;;;30.13;8.33;;;;;;;-3.25;53.42;99418.81;5109949;27;20047;-78
2022/02/16 03:46:22;;;;;;;19.88;7.20;;;;;;;-3.15;53.00;99438.00;5132566;27;20141;-80
2022/02/16 03:48:48;;;;;;;18.83;6.80;;;;;;;-3.14;52.88;99428.94;5115755;28;20075;-78
2022/02/16 03:51:19;;;;;;;19.77;7.23;;;;;;;-3.28;53.34;99444.91;5121447;28;20051;-80
2022/02/16 03:53:46;;;;;;;23.40;7.20;;;;;;;-3.40;54.08;99437.59;5092285;28;20456;-77
2022/02/16 03:56:12;;;;;;;23.17;7.70;;;;;;;-3.57;54.24;99435.19;5116101;28;20043;-80
2022/02/16 03:58:40;;;;;;;17.00;6.87;;;;;;;-3.39;53.93;99429.38;5121185;28;20445;-79
2022/02/16 04:01:08;;;;;;;26.25;7.78;;;;;;;-3.28;53.57;99422.69;5099645;28;20527;-79
2022/02/16 04:03:34;;;;;;;20.90;7.73;;;;;;;-3.31;53.45;99431.09;5131111;27;20096;-79
2022/02/16 04:06:00;;;;;;;23.40;7.90;;;;;;;-3.51;53.96;99415.72;5082051;28;20044;-80
2022/02/16 04:08:26;;;;;;;21.40;7.10;;;;;;;-3.44;53.79;99421.94;5078667;28;20522;-80
2022/02/16 04:10:53;;;;;;;25.83;8.27;;;;;;;-3.42;54.09;99411.88;5108756;27;20043;-81
2022/02/16 04:13:21;;;;;;;;;;;;;;;-3.37;53.97;99407.78;5113254;28;20042;-79
2022/02/16 04:15:48;;;;;;;21.98;6.85;;;;;;;-3.27;53.44;99408.28;5114994;28;20310;-80
2022/02/16 04:18:15;;;;;;;19.43;7.07;;;;;;;-3.37;53.81;99397.09;5131357;28;20055;-80
2022/02/16 04:20:41;;;;;;;22.75;7.40;;;;;;;-3.34;53.96;99415.44;5099119;27;20039;-80
2022/02/16 04:23:12;;;;;;;26.00;7.23;;;;;;;-3.33;54.15;99401.88;5114897;28;20526;-80
2022/02/16 04:25:39;;;;;;;22.90;7.77;;;;;;;-3.36;54.38;99407.59;5110901;28;20499;-80
2022/02/16 04:28:06;;;;;;;24.70;7.43;;;;;;;-3.29;53.94;99413.81;5113417;28;20075;-80
2022/02/16 04:30:33;;;;;;;25.70;8.40;;;;;;;-3.25;53.97;99411.59;5132643;27;20237;-79
2022/02/16 04:33:02;;;;;;;25.77;7.77;;;;;;;-3.23;54.16;99401.53;5108155;28;20047;-81
2022/02/16 04:35:29;;;;;;;26.80;8.27;;;;;;;-3.16;54.09;99409.59;5092103;27;20039;-81
2022/02/16 04:37:55;;;;;;;22.83;8.07;;;;;;;-3.21;54.04;99401.34;5112315;28;20061;-80
2022/02/16 04:40:21;;;;;;;29.53;8.27;;;;;;;-3.22;54.16;99415.75;5110584;28;20406;-80
2022/02/16 04:42:48;;;;;;;25.20;8.10;;;;;;;-3.22;54.17;99403.19;5104223;28;20193;-79
2022/02/16 04:45:15;;;;;;;23.05;8.45;;;;;;;-3.15;53.93;99403.22;5079064;28;20350;-75
2022/02/16 04:47:44;;;;;;;28.38;8.55;;;;;;;-3.19;54.27;99404.66;5130133;28;20062;-78
2022/02/16 04:50:10;;;;;;;27.67;8.50;;;;;;;-3.35;54.45;99395.88;5095847;28;20138;-74
2022/02/16 04:52:38;;;;;;;23.20;8.53;;;;;;;-3.35;54.47;99421.81;5090624;28;20063;-74
2022/02/16 04:55:25;;;;;;;22.00;8.38;;;;;;;-3.35;54.94;99401.22;5114638;28;20039;-75
2022/02/16 04:57:55;;;;;;;22.83;7.63;;;;;;;-3.27;54.44;99392.25;5113572;28;20454;-75
2022/02/16 05:00:24;;;;;;;26.92;9.20;;;;;;;-3.43;54.75;99407.53;5093794;28;20051;-75
2022/02/16 05:02:57;;;;;;;24.83;8.87;;;;;;;-3.40;54.97;99397.47;5111219;27;20091;-75
2022/02/16 05:05:24;;;;;;;28.57;8.47;;;;;;;-3.36;54.99;99407.59;5112689;28;20067;-75
2022/02/16 05:07:51;;;;;;;29.13;8.83;;;;;;;-3.25;54.55;99395.53;5122912;28;20554;-74
2022/02/16 05:10:17;;;;;;;26.00;9.40;;;;;;;-3.32;54.84;99387.47;5126390;27;20053;-74
2022/02/16 05:12:43;;;;;;;28.37;9.90;;;;;;;-3.31;54.89;99405.16;5079004;28;20142;-75
2022/02/16 05:15:10;;;;;;;26.50;8.70;;;;;;;-3.33;54.68;99376.97;5110882;28;20100;-74
2022/02/16 05:17:37;;;;;;;24.33;9.18;;;;;;;-3.29;54.70;99416.50;5111443;28;20558;-75
2022/02/16 05:20:08;;;;;;;30.77;9.17;;;;;;;-3.37;55.58;99415.81;5112710;28;20049;-74
2022/02/16 05:22:35;;;;;;;23.33;8.70;;;;;;;-3.37;55.25;99405.94;5115493;28;20047;-74
2022/02/16 05:25:03;;;;;;;26.47;9.93;;;;;;;-3.40;55.28;99421.53;5090833;28;20442;-74
2022/02/16 05:27:29;;;;;;;27.30;9.13;;;;;;;-3.31;55.44;99402.50;5112325;28;20496;-75
2022/02/16 05:29:55;;;;;;;31.63;9.63;;;;;;;-3.12;54.72;99408.22;5092324;27;20038;-75
2022/02/16 05:32:22;;;;;;;26.03;9.47;;;;;;;-3.20;55.03;99424.38;5127564;27;20529;-76
2022/02/16 05:34:49;;;;;;;31.17;9.90;;;;;;;-3.16;54.96;99399.75;5111744;27;20095;-76
2022/02/16 05:37:15;;;;;;;26.02;8.80;;;;;;;-3.18;55.15;99400.94;5101220;28;20078;-74
2022/02/16 05:39:41;;;;;;;27.30;9.23;;;;;;;-3.09;55.01;99415.00;5122583;28;20507;-74
2022/02/16 05:42:10;;;;;;;27.50;9.23;;;;;;;-3.08;54.94;99416.66;5100602;28;20075;-75
2022/02/16 05:44:41;;;;;;;26.37;9.40;;;;;;;-3.01;55.04;99406.84;5089723;28;20044;-73
2022/02/16 05:47:07;;;;;;;25.50;9.20;;;;;;;-2.94;54.95;99413.03;5103053;28;20114;-72
2022/02/16 05:49:34;;;;;;;25.07;8.93;;;;;;;-3.00;54.86;99414.66;5099765;28;20046;-73
2022/02/16 05:52:00;;;;;;;31.83;9.80;;;;;;;-3.04;55.08;99424.09;5115435;28;20046;-73
2022/02/16 05:54:26;;;;;;;27.90;9.50;;;;;;;-2.89;54.54;99432.03;5123634;28;20475;-73
2022/02/16 05:56:52;;;;;;;24.80;9.03;;;;;;;-2.85;54.96;99430.63;5086251;27;20484;-72
2022/02/16 05:59:21;;;;;;;25.43;9.17;;;;;;;-2.82;54.80;99425.91;5104718;28;20471;-72
2022/02/16 06:01:49;;;;;;;21.87;9.10;;;;;;;-2.91;54.98;99418.00;5088950;28;20066;-73
2022/02/16 06:04:16;;;;;;;29.70;10.00;;;;;;;-2.83;55.21;99441.09;5130337;27;20055;-73
2022/02/16 06:06:43;;;;;;;25.73;9.27;;;;;;;-2.69;54.73;99433.16;5111715;27;20477;-74
2022/02/16 06:09:10;;;;;;;26.47;9.70;;;;;;;-2.69;54.81;99431.34;5111623;28;20133;-74
2022/02/16 06:11:36;;;;;;;34.23;9.53;;;;;;;-2.74;55.10;99429.25;5104291;28;20134;-73
2022/02/16 06:14:07;;;;;;;29.10;9.83;;;;;;;-2.66;55.00;99430.09;5108665;27;20403;-73
2022/02/16 06:16:35;;;;;;;25.67;8.77;;;;;;;-2.49;54.63;99431.44;5099226;28;20063;-73
2022/02/16 06:19:01;;;;;;;27.77;9.40;;;;;;;-2.43;54.68;99435.16;5073025;27;20524;-72
2022/02/16 06:21:28;;;;;;;25.40;8.77;;;;;;;-2.43;54.75;99437.84;5110204;27;20092;-74
2022/02/16 06:23:54;;;;;;;31.77;10.03;;;;;;;-2.39;54.79;99439.13;5095057;28;20185;-73
2022/02/16 06:26:22;;;;;;;31.13;10.10;;;;;;;-2.40;54.65;99433.94;5091460;28;20092;-72
2022/02/16 06:28:48;;;;;;;26.37;10.97;;;;;;;-2.25;54.35;99423.09;5107433;28;20051;-73
2022/02/16 06:31:17;;;;;;;26.10;9.33;;;;;;;-2.23;54.36;99426.41;5120869;28;20054;-73
2022/02/16 06:33:44;;;;;;;28.00;10.57;;;;;;;-2.19;54.55;99424.97;5118003;28;20059;-72
2022/02/16 06:36:10;;;;;;;29.33;9.80;;;;;;;-2.20;54.64;99405.38;5112441;28;20074;-73
2022/02/16 06:38:37;;;;;;;33.90;10.52;;;;;;;-2.21;54.53;99408.28;5108411;28;20050;-74
2022/02/16 06:41:07;;;;;;;33.37;10.30;;;;;;;-2.09;54.69;99395.97;5099060;28;20047;-73
2022/02/16 06:43:33;;;;;;;31.27;10.27;;;;;;;-2.03;54.82;99411.22;5113271;28;20063;-73
2022/02/16 06:46:00;;;;;;;28.58;10.63;;;;;;;-2.15;54.65;99369.97;5113359;28;20100;-73
2022/02/16 06:48:26;;;;;;;29.17;10.03;;;;;;;-1.91;54.37;99406.09;5113514;27;20058;-74
2022/02/16 06:50:53;;;;;;;25.30;10.20;;;;;;;-1.93;54.61;99399.31;5130637;28;20051;-73
2022/02/16 06:53:20;;;;;;;29.27;10.80;;;;;;;-1.86;54.50;99394.75;5113320;28;20071;-74
2022/02/16 06:55:48;;;;;;;38.47;11.60;;;;;;;-1.71;54.12;99386.56;5115047;28;20101;-73
2022/02/16 06:58:17;;;;;;;38.30;10.87;;;;;;;-1.74;54.48;99387.78;5118634;28;20046;-73
2022/02/16 07:00:44;;;;;;;39.80;11.97;;;;;;;-1.72;54.53;99411.69;5092260;28;20043;-73
2022/02/16 07:03:12;;;;;;;32.30;11.15;;;;;;;-1.64;54.36;99365.09;5101095;28;20051;-73
2022/02/16 07:05:44;;;;;;;35.10;11.13;;;;;;;-1.58;54.10;99394.59;5114810;28;20084;-74
2022/02/16 07:08:17;;;;;;;31.27;11.07;;;;;;;-1.53;54.45;99385.13;5102473;28;20101;-73
2022/02/16 07:10:46;;;;;;;;;;;;;;;-1.42;54.01;99381.81;5089521;28;20048;-73
2022/02/16 07:13:13;;;;;;;32.30;10.97;;;;;;;-1.45;54.13;99395.63;5107808;28;19923;-73
2022/02/16 07:15:39;;;;;;;31.13;11.13;;;;;;;-1.37;54.00;99392.75;5094372;28;20537;-73
2022/02/16 07:18:07;;;;;;;29.73;11.07;;;;;;;-1.38;54.33;99383.06;5114962;28;20419;-73
2022/02/16 07:20:42;;;;;;;40.03;12.40;;;;;;;-1.30;54.24;99382.03;5124487;27;20055;-70
2022/02/16 07:23:12;;;;;;;33.93;11.43;;;;;;;-1.28;54.39;99374.59;5107216;28;20521;-69
2022/02/16 07:25:39;;;;;;;34.53;11.70;;;;;;;-1.16;54.02;99388.22;5091619;28;20104;-70
2022/02/16 07:28:06;;;;;;;32.33;12.02;;;;;;;-1.18;53.99;99383.03;5126274;28;20051;-70
2022/02/16 07:30:33;;;;;;;29.10;11.13;;;;;;;-1.16;54.12;99364.91;5105609;27;20078;-69
2022/02/16 07:32:59;;;;;;;32.73;12.00;;;;;;;-1.02;54.00;99368.38;5108353;28;20043;-72
2022/02/16 07:35:26;;;;;;;44.17;12.80;;;;;;;-1.06;53.97;99377.03;5108858;28;20095;-71
2022/02/16 07:37:53;;;;;;;34.83;12.50;;;;;;;-0.91;53.81;99368.78;5110478;28;20047;-74
2022/02/16 07:40:19;;;;;;;39.92;13.57;;;;;;;-0.85;53.76;99384.03;5103347;28;20059;-67
2022/02/16 07:42:46;;;;;;;35.97;12.30;;;;;;;-0.69;53.48;99377.41;5128153;28;20047;-69
2022/02/16 07:45:33;;;;;;;33.38;10.70;;;;;;;-0.55;53.35;99366.59;5094600;28;20043;-68
2022/02/16 07:48:00;;;;;;;31.07;11.83;;;;;;;-0.48;52.94;99360.16;5111804;28;20440;-68
2022/02/16 07:50:27;;;;;;;33.20;12.47;;;;;;;-0.30;52.87;99372.09;5111570;28;20055;-70
2022/02/16 07:53:12;;;;;;;29.10;12.50;;;;;;;-0.12;52.68;99367.88;5115255;28;20047;-68
2022/02/16 07:55:47;;;;;;;36.37;12.43;;;;;;;-0.05;52.44;99356.03;5107830;28;20107;-67
2022/02/16 07:58:14;;;;;;;36.13;12.17;;;;;;;-0.01;52.50;99356.41;5125495;28;20038;-67
2022/02/16 08:00:40;;;;;;;35.63;12.98;;;;;;;0.13;52.11;99332.97;5085249;28;20703;-68
2022/02/16 08:03:16;;;;;;;39.20;12.67;;;;;;;0.26;51.80;99348.16;5107649;28;20530;-69
2022/02/16 08:05:43;;;;;;;31.27;12.33;;;;;;;0.30;51.73;99338.63;5084261;28;20822;-69
2022/02/16 08:08:21;;;;;;;32.53;12.60;;;;;;;0.31;51.80;99328.69;5105171;28;20088;-72
2022/02/16 08:10:50;;;;;;;36.10;13.02;;;;;;;0.46;51.85;99347.19;5120453;27;20056;-74
2022/02/16 08:13:18;;;;;;;31.80;13.23;;;;;;;0.55;51.78;99356.66;5093906;28;20047;-73
2022/02/16 08:16:07;;;;;;;;;;;;;;;0.59;51.37;99339.00;5105735;28;20456;-73
2022/02/16 08:18:34;;;;;;;36.67;12.43;;;;;;;0.62;51.35;99332.38;5110396;28;20026;-74
2022/02/16 08:21:00;;;;;;;30.30;12.40;;;;;;;0.72;51.37;99351.53;5095434;28;20138;-73
2022/02/16 08:23:36;;;;;;;39.50;13.53;;;;;;;0.80;51.23;99345.88;5103015;28;20503;-73
2022/02/16 08:26:03;;;;;;;37.22;12.98;;;;;;;0.83;51.21;99333.84;5098210;28;20423;-77
2022/02/16 08:28:31;;;;;;;35.35;12.80;;;;;;;0.98;51.20;99330.78;5088213;28;20106;-77
2022/02/16 08:30:57;;;;;;;;;;;;;;;1.10;50.93;99333.56;5082476;28;20494;-77
2022/02/16 08:33:37;;;;;;;38.22;13.82;;;;;;;1.16;50.52;99329.97;5104683;28;19923;-79
2022/02/16 08:36:07;;;;;;;31.77;12.38;;;;;;;1.25;50.48;99339.41;5128106;28;20507;-77
2022/02/16 08:38:34;;;;;;;31.73;13.23;;;;;;;1.34;50.22;99342.63;5098729;28;20088;-81
2022/02/16 08:41:01;;;;;;;37.83;12.77;;;;;;;1.30;50.14;99351.38;5113522;28;20042;-78
2022/02/16 08:43:27;;;;;;;31.23;12.50;;;;;;;1.34;49.73;99348.03;5127752;28;20134;-80
2022/02/16 08:45:55;;;;;;;39.22;13.73;;;;;;;1.41;49.87;99329.09;5109925;27;20056;-76
2022/02/16 08:48:23;;;;;;;36.80;13.10;;;;;;;1.59;49.59;99314.75;5097191;28;20609;-78
2022/02/16 08:50:49;;;;;;;30.90;11.23;;;;;;;1.86;49.32;99333.25;5130542;28;20336;-76
2022/02/16 08:53:15;;;;;;;30.90;11.63;;;;;;;1.90;49.14;99328.25;5094624;28;20047;-80
2022/02/16 08:55:42;;;;;;;38.67;13.10;;;;;;;1.93;48.98;99325.09;5101850;27;20737;-79
2022/02/16 08:58:09;;;;;;;32.28;13.02;;;;;;;1.95;49.02;99314.88;5104993;28;20320;-80
2022/02/16 09:00:35;;;;;;;31.63;12.20;;;;;;;1.96;49.08;99338.09;5111182;28;20050;-79
2022/02/16 09:03:03;;;;;;;35.55;13.60;;;;;;;2.03;49.14;99332.63;5113612;28;20079;-78
2022/02/16 09:05:29;;;;;;;33.72;12.93;;;;;;;2.00;49.26;99333.88;5106190;28;20131;-79
2022/02/16 09:07:55;;;;;;;34.30;14.25;;;;;;;2.25;48.84;99312.13;5126168;28;20054;-80
2022/02/16 09:10:22;;;;;;;34.17;13.77;;;;;;;2.43;48.51;99318.53;5105283;28;20070;-80
2022/02/16 09:12:48;;;;;;;29.25;13.15;;;;;;;2.45;48.48;99313.72;5122675;28;20075;-80
2022/02/16 09:15:14;;;;;;;39.22;14.15;;;;;;;2.47;48.31;99325.09;5125632;27;20051;-79
2022/02/16 09:17:41;;;;;;;38.05;13.40;;;;;;;2.48;48.24;99309.69;5122693;28;20044;-80
2022/02/16 09:20:08;;;;;;;41.65;12.98;;;;;;;2.63;48.16;99320.88;5126514;27;20142;-77
2022/02/16 09:22:34;;;;;;;;;;;;;;;2.76;47.94;99317.13;5112291;27;20071;-78
2022/02/16 09:25:01;;;;;;;36.30;13.57;;;;;;;2.86;47.81;99316.53;5098315;28;19965;-80
2022/02/16 09:27:30;;;;;;;37.78;12.75;;;;;;;2.81;47.55;99292.94;5106236;28;20075;-78
2022/02/16 09:29:57;;;;;;;39.70;14.18;;;;;;;2.91;47.66;99289.63;5094364;27;20051;-79
2022/02/16 09:32:23;;;;;;;42.30;14.45;;;;;;;3.19;47.51;99304.28;5126278;27;20054;-79
2022/02/16 09:34:51;;;;;;;35.53;14.45;;;;;;;3.41;46.95;99306.31;5124076;27;20045;-79
2022/02/16 09:37:18;;;;;;;43.10;14.70;;;;;;;3.66;46.64;99300.59;5128284;28;20446;-80
2022/02/16 09:39:44;;;;;;;35.47;14.77;;;;;;;3.78;46.22;99288.91;5062983;28;20522;-78
2022/02/16 09:42:11;;;;;;;37.15;14.50;;;;;;;4.15;45.98;99293.91;5092852;28;20138;-79
2022/02/16 09:44:44;;;;;;;39.75;15.50;;;;;;;4.65;45.18;99291.44;5124362;27;20052;-80
2022/02/16 09:47:11;;;;;;;38.45;15.48;;;;;;;4.90;44.45;99290.16;5125276;27;20118;-78
2022/02/16 09:49:38;;;;;;;37.20;15.30;;;;;;;5.13;44.01;99263.91;5123449;27;20043;-78
2022/02/16 09:52:05;;;;;;;34.97;15.18;;;;;;;5.48;43.72;99284.38;5111557;28;20047;-80
2022/02/16 09:54:34;;;;;;;33.20;15.52;;;;;;;5.49;43.47;99256.19;5102527;28;20082;-80
2022/02/16 09:57:00;;;;;;;39.35;15.73;;;;;;;5.55;43.41;99274.19;5101847;28;20040;-79
2022/02/16 09:59:26;;;;;;;37.10;15.73;;;;;;;5.66;43.39;99269.66;5091331;28;20063;-80
2022/02/16 10:01:57;;;;;;;36.97;16.02;;;;;;;5.73;42.84;99273.00;5088598;28;20582;-81
2022/02/16 10:04:23;;;;;;;39.10;16.13;;;;;;;5.75;43.41;99257.28;5121698;28;20047;-78
2022/02/16 10:06:49;;;;;;;36.13;16.02;;;;;;;5.36;43.77;99269.06;5112910;28;20075;-79
2022/02/16 10:09:25;;;;;;;39.50;16.83;;;;;;;5.29;43.87;99248.63;5098460;28;20108;-79
2022/02/16 10:11:54;;;;;;;37.03;16.13;;;;;;;5.48;43.41;99273.53;5094605;28;20058;-79
2022/02/16 10:14:23;;;;;;;41.22;18.77;;;;;;;5.85;42.75;99255.75;5092539;28;20058;-79
2022/02/16 10:16:52;;;;;;;38.33;17.02;;;;;;;6.04;43.04;99253.50;5095517;28;20241;-76
2022/02/16 10:19:18;;;;;;;39.38;15.68;;;;;;;6.04;42.43;99224.47;5118053;28;20035;-74
2022/02/16 10:22:04;;;;;;;37.72;16.23;;;;;;;6.14;41.96;99234.59;5131843;28;20572;-77
2022/02/16 10:24:30;;;;;;;37.88;16.48;;;;;;;6.18;42.04;99232.19;5111405;28;20055;-75
2022/02/16 10:26:57;;;;;;;36.08;16.70;;;;;;;6.42;41.68;99213.59;5122200;28;20039;-75
2022/02/16 10:29:25;;;;;;;37.63;16.40;;;;;;;6.83;41.05;99232.03;5102839;28;20096;-75
2022/02/16 10:31:51;;;;;;;38.47;16.85;;;;;;;6.42;41.60;99229.09;5120242;28;20134;-74
2022/02/16 10:34:17;;;;;;;40.40;17.02;;;;;;;6.28;41.59;99256.69;5102642;28;20541;-75
2022/02/16 10:36:46;;;;;;;39.17;15.90;;;;;;;6.23;41.82;99233.03;5110640;28;20058;-74
2022/02/16 10:39:16;;;;;;;37.97;15.90;;;;;;;6.30;41.57;99221.97;5127309;28;20116;-75
2022/02/16 10:41:44;;;;;;;37.25;17.58;;;;;;;6.18;41.63;99234.88;5110460;28;20077;-80
2022/02/16 10:44:22;;;;;;;42.20;16.08;;;;;;;6.35;41.39;99221.19;5117476;28;20055;-74
2022/02/16 10:46:58;;;;;;;;;;;;;;;6.39;40.99;99220.38;5109500;27;20073;-75
2022/02/16 10:49:26;;;;;;;45.00;17.75;;;;;;;6.41;41.06;99198.41;5122612;27;19982;-77
2022/02/16 10:52:04;;;;;;;34.28;15.90;;;;;;;6.59;40.68;99208.03;5102783;28;20039;-74
2022/02/16 10:54:31;;;;;;;35.80;15.02;;;;;;;7.11;40.07;99210.97;5111687;28;20048;-76
2022/02/16 10:56:57;;;;;;;40.05;17.25;;;;;;;7.40;39.61;99199.66;5084267;28;20514;-74
2022/02/16 10:59:24;;;;;;;38.45;16.52;;;;;;;7.15;39.87;99200.41;5122200;28;20418;-74
2022/02/16 11:01:52;;;;;;;33.13;16.80;;;;;;;7.57;39.56;99199.41;5118015;27;20047;-74
2022/02/16 11:04:22;;;;;;;35.55;15.82;;;;;;;7.34;39.35;99198.81;5090459;28;20062;-77
2022/02/16 11:06:50;;;;;;;34.08;15.82;;;;;;;7.10;39.71;99179.44;5101023;28;20503;-77
2022/02/16 11:09:23;;;;;;;38.67;15.63;;;;;;;6.97;39.80;99177.22;5075878;28;20052;-78
2022/02/16 11:11:52;;;;;;;36.53;17.05;;;;;;;7.21;39.22;99197.44;5110903;28;20047;-77
2022/02/16 11:14:23;;;;;;;34.97;15.95;;;;;;;7.20;39.39;99163.16;5127534;28;20047;-77
2022/02/16 11:16:52;;;;;;;40.22;16.92;;;;;;;7.45;38.97;99174.38;5131543;27;20051;-76
2022/02/16 11:19:21;;;;;;;43.25;16.45;;;;;;;7.15;39.62;99182.16;5092467;28;20448;-73
2022/02/16 11:21:59;;;;;;;37.40;16.75;;;;;;;6.29;40.85;99167.91;5104916;28;20043;-76
2022/02/16 11:24:29;;;;;;;;;;;;;;;5.90;41.78;99172.50;5093104;28;20058;-75
2022/02/16 11:26:56;;;;;;;41.45;16.55;;;;;;;5.46;42.42;99154.47;5124753;28;19923;-77
2022/02/16 11:29:41;;;;;;;35.40;15.88;;;;;;;5.14;43.18;99157.13;5109251;28;20056;-75
2022/02/16 11:32:31;;;;;;;54.67;16.73;;;;;;;4.88;43.84;99160.38;5104835;28;20047;-75